Flight Track Log - Related Links

Times and Time Zones

All times are in EDT time to prevent confusion due to time zone crossing. See the AWI3680 flight status page for this flight to view local times or setup timezone preferences in your user account.

Time Position Orientation Groundspeed Altitude Reporting Facility
EDT Latitude Longitude Course Direction KTS MPH feet Rate Location/Type
Wed 06:36:32 PM 39.8667 -75.2833 37° Northeast 162 186 700  Level Philadelphia TRACON
Wed 06:37:50 PM 39.8000 -75.3333 210° Southwest 218 251 3,700 2,174 Climbing Philadelphia TRACON
Wed 06:38:50 PM 39.7500 -75.3167 166° South 265 305 5,700 2,150 Climbing Philadelphia TRACON
Wed 06:39:00 PM 39.8075 -74.8208 105° East  Level FlightAware Approximate
Wed 06:39:50 PM 39.7500 -75.2167 90° East 290 334 8,000  Level Philadelphia TRACON
Wed 06:40:00 PM 39.7866 -74.7165 105° East  Level FlightAware Approximate
Wed 06:40:50 PM 39.7667 -75.1167 78° East 310 357 10,200  Level Philadelphia TRACON
Wed 06:41:00 PM 39.8387 -74.6447 37° Northeast  Level FlightAware Approximate
Wed 06:42:44 PM 39.7786 -74.9008 86° East 342 394 12,000  Level New York Center
Wed 06:43:42 PM 39.7919 -74.7558 83° East 357 411 13,600 1,550 Climbing New York Center
Wed 06:44:44 PM 39.8556 -74.6594 49° Northeast 336 387 15,100 1,426 Climbing New York Center
Wed 06:45:44 PM 39.9397 -74.5747 38° Northeast 352 405 16,500 1,311 Climbing New York Center
Wed 06:46:43 PM 40.0236 -74.4900 38° Northeast 364 419 17,700 1,100 Climbing New York Center
Wed 06:47:44 PM 40.1033 -74.4128 37° Northeast 383 441 18,700 1,008 Climbing New York Center
Wed 06:48:42 PM 40.1978 -74.3172 38° Northeast 391 450 19,700 1,008 Climbing New York Center
Wed 06:49:43 PM 40.2939 -74.2406 31° Northeast 396 456 20,700 847 Climbing New York Center
Wed 06:51:25 PM 40.4539 -74.1147 31° Northeast 399 459 22,000 1,013 Climbing Boston Center
Wed 06:52:23 PM 40.5444 -74.0486 29° Northeast 406 467 23,400 1,017 Climbing Boston Center
Wed 06:53:23 PM 40.6539 -73.9719 28° Northeast 406 467 24,000 298 Climbing Boston Center
Wed 06:54:24 PM 40.7444 -73.9031 30° Northeast 406 467 24,000  Level Boston Center
Wed 06:55:24 PM 40.8394 -73.8064 38° Northeast 411 473 24,000 -150 Level Boston Center
Wed 06:56:24 PM 40.9325 -73.7039 40° Northeast 423 487 23,700 -508 Descending Boston Center
Wed 06:57:22 PM 41.0314 -73.6150 34° Northeast 429 494 23,000 -458 Descending Boston Center
Wed 06:58:22 PM 41.1322 -73.5286 33° Northeast 429 494 22,800 -645 Descending Boston Center
Wed 06:59:23 PM 41.2331 -73.4392 34° Northeast 429 494 21,700 -1,041 Descending Boston Center
Wed 07:00:23 PM 41.3500 -73.4133 North 413 475 20,700 -992 Descending Boston Center
Wed 07:01:24 PM 41.4644 -73.4317 353° North 408 470 19,700 -1,008 Descending Boston Center
Wed 07:02:22 PM 41.5789 -73.4503 353° North 408 470 18,700 -1,008 Descending Boston Center
Wed 07:03:23 PM 41.7039 -73.4661 355° North 408 470 17,700 -1,082 Descending Boston Center
Wed 07:04:24 PM 41.8058 -73.4817 354° North 408 470 16,500 -1,672 Descending Boston Center
Wed 07:05:25 PM 41.9244 -73.4975 354° North 403 464 14,300 -2,289 Descending Boston Center
Wed 07:06:01 PM 42.0014 -73.5128 352° North 386 444 12,800 -1,922 Descending Boston Center
Wed 07:07:08 PM 42.1097 -73.5286 354° North 367 422 11,000 -851 Descending Boston Center
Wed 07:08:15 PM 42.2136 -73.5500 351° North 353 406 10,900 -744 Descending Boston Center
Wed 07:09:17 PM 42.2986 -73.6022 336° Northwest 301 346 9,400 -1,525 Descending Boston Center
Wed 07:10:17 PM 42.3731 -73.6428 338° Northwest 287 330 7,800 -1,701 Descending Boston Center
Wed 07:11:24 PM 42.4458 -73.6808 339° North 275 316 5,800 -1,930 Descending Boston Center
Wed 07:12:12 PM 42.5078 -73.7186 336° Northwest 261 300 4,100 -1,927 Descending Boston Center
Wed 07:13:13 PM 42.5719 -73.7594 335° Northwest 256 295 2,300 -1,033 Descending Boston Center
Wed 07:14:14 PM 42.6361 -73.7919 340° North 230 265 2,000 -541 Descending Boston Center
Wed 07:15:15 PM 42.6861 -73.8042 350° North 176 203 1,200 -738 Descending Boston Center
Wed 07:16:16 PM 42.7297 -73.8081 356° North 144 166 500 -689 Descending Boston Center

Login

Don't have an account? Register now (free) for customized features, flight alerts, and more!